sensor_id;sensor_type;location;lat;lon;timestamp;temperature;humidity
4647;DHT22;2336;47.822;7.564;2023-06-19T00:01:57;20.70;99.90
4647;DHT22;2336;47.822;7.564;2023-06-19T00:04:24;20.70;99.90
4647;DHT22;2336;47.822;7.564;2023-06-19T00:06:52;20.70;99.90
4647;DHT22;2336;47.822;7.564;2023-06-19T00:09:18;20.70;99.90
4647;DHT22;2336;47.822;7.564;2023-06-19T00:11:45;20.70;99.90
4647;DHT22;2336;47.822;7.564;2023-06-19T00:14:12;20.80;99.90
4647;DHT22;2336;47.822;7.564;2023-06-19T00:16:40;20.80;99.90
4647;DHT22;2336;47.822;7.564;2023-06-19T00:19:07;20.80;99.90
4647;DHT22;2336;47.822;7.564;2023-06-19T00:21:33;20.80;99.90
4647;DHT22;2336;47.822;7.564;2023-06-19T00:24:00;20.80;99.90
4647;DHT22;2336;47.822;7.564;2023-06-19T00:26:27;20.80;99.90
4647;DHT22;2336;47.822;7.564;2023-06-19T00:28:54;20.80;99.90
4647;DHT22;2336;47.822;7.564;2023-06-19T00:31:20;20.90;99.90
4647;DHT22;2336;47.822;7.564;2023-06-19T00:33:49;20.90;99.90
4647;DHT22;2336;47.822;7.564;2023-06-19T00:36:16;20.90;99.90
4647;DHT22;2336;47.822;7.564;2023-06-19T00:38:45;20.90;99.90
4647;DHT22;2336;47.822;7.564;2023-06-19T00:41:12;20.90;99.90
4647;DHT22;2336;47.822;7.564;2023-06-19T00:43:39;21.00;99.90
4647;DHT22;2336;47.822;7.564;2023-06-19T00:46:06;21.00;99.90
4647;DHT22;2336;47.822;7.564;2023-06-19T00:48:34;21.00;99.90
4647;DHT22;2336;47.822;7.564;2023-06-19T00:51:02;21.00;99.90
4647;DHT22;2336;47.822;7.564;2023-06-19T00:53:30;21.00;99.90
4647;DHT22;2336;47.822;7.564;2023-06-19T00:55:57;21.10;99.90
4647;DHT22;2336;47.822;7.564;2023-06-19T00:58:26;21.10;99.90
4647;DHT22;2336;47.822;7.564;2023-06-19T01:00:53;21.00;99.90
4647;DHT22;2336;47.822;7.564;2023-06-19T01:03:20;20.80;99.90
4647;DHT22;2336;47.822;7.564;2023-06-19T01:05:48;20.50;99.90
4647;DHT22;2336;47.822;7.564;2023-06-19T01:08:29;20.10;99.90
4647;DHT22;2336;47.822;7.564;2023-06-19T01:11:00;19.50;99.90
4647;DHT22;2336;47.822;7.564;2023-06-19T01:13:33;19.10;99.90
4647;DHT22;2336;47.822;7.564;2023-06-19T01:16:01;18.80;99.90
4647;DHT22;2336;47.822;7.564;2023-06-19T01:18:30;18.60;99.90
4647;DHT22;2336;47.822;7.564;2023-06-19T01:21:09;18.60;99.90
4647;DHT22;2336;47.822;7.564;2023-06-19T01:23:37;18.70;99.90
4647;DHT22;2336;47.822;7.564;2023-06-19T01:26:05;18.70;99.90
4647;DHT22;2336;47.822;7.564;2023-06-19T01:28:32;18.60;99.90
4647;DHT22;2336;47.822;7.564;2023-06-19T01:31:00;18.60;99.90
4647;DHT22;2336;47.822;7.564;2023-06-19T01:33:29;18.60;99.90
4647;DHT22;2336;47.822;7.564;2023-06-19T01:35:57;18.60;99.90
4647;DHT22;2336;47.822;7.564;2023-06-19T01:38:25;18.60;99.90
4647;DHT22;2336;47.822;7.564;2023-06-19T01:40:56;18.60;99.90
4647;DHT22;2336;47.822;7.564;2023-06-19T01:43:25;18.60;99.90
4647;DHT22;2336;47.822;7.564;2023-06-19T01:45:52;18.70;99.90
4647;DHT22;2336;47.822;7.564;2023-06-19T01:48:19;18.70;99.90
4647;DHT22;2336;47.822;7.564;2023-06-19T01:50:46;18.80;99.90
4647;DHT22;2336;47.822;7.564;2023-06-19T01:53:13;18.90;99.90
4647;DHT22;2336;47.822;7.564;2023-06-19T01:55:40;18.90;99.90
4647;DHT22;2336;47.822;7.564;2023-06-19T01:58:08;18.70;99.90
4647;DHT22;2336;47.822;7.564;2023-06-19T02:00:35;18.60;99.90
4647;DHT22;2336;47.822;7.564;2023-06-19T02:03:03;18.60;99.90
4647;DHT22;2336;47.822;7.564;2023-06-19T02:05:30;18.70;99.90
4647;DHT22;2336;47.822;7.564;2023-06-19T02:07:57;18.60;99.90
4647;DHT22;2336;47.822;7.564;2023-06-19T02:10:24;18.50;99.90
4647;DHT22;2336;47.822;7.564;2023-06-19T02:12:50;18.40;99.90
4647;DHT22;2336;47.822;7.564;2023-06-19T02:15:18;18.40;99.90
4647;DHT22;2336;47.822;7.564;2023-06-19T02:17:45;18.40;99.90
4647;DHT22;2336;47.822;7.564;2023-06-19T02:20:12;18.40;99.90
4647;DHT22;2336;47.822;7.564;2023-06-19T02:22:39;18.50;99.90
4647;DHT22;2336;47.822;7.564;2023-06-19T02:25:06;18.40;99.90
4647;DHT22;2336;47.822;7.564;2023-06-19T02:27:33;18.50;99.90
4647;DHT22;2336;47.822;7.564;2023-06-19T02:30:00;18.40;99.90
4647;DHT22;2336;47.822;7.564;2023-06-19T02:32:28;18.30;99.90
4647;DHT22;2336;47.822;7.564;2023-06-19T02:34:55;18.20;99.90
4647;DHT22;2336;47.822;7.564;2023-06-19T02:37:21;18.20;99.90
4647;DHT22;2336;47.822;7.564;2023-06-19T02:39:48;18.20;99.90
4647;DHT22;2336;47.822;7.564;2023-06-19T02:42:15;18.20;99.90
4647;DHT22;2336;47.822;7.564;2023-06-19T02:44:41;18.30;99.90
4647;DHT22;2336;47.822;7.564;2023-06-19T02:47:08;18.30;99.90
4647;DHT22;2336;47.822;7.564;2023-06-19T02:49:36;18.20;99.90
4647;DHT22;2336;47.822;7.564;2023-06-19T02:52:04;18.10;99.90
4647;DHT22;2336;47.822;7.564;2023-06-19T02:54:31;18.10;99.90
4647;DHT22;2336;47.822;7.564;2023-06-19T02:56:58;18.10;99.90
4647;DHT22;2336;47.822;7.564;2023-06-19T02:59:25;18.00;99.90
4647;DHT22;2336;47.822;7.564;2023-06-19T03:01:52;18.00;99.90
4647;DHT22;2336;47.822;7.564;2023-06-19T03:04:18;18.00;99.90
4647;DHT22;2336;47.822;7.564;2023-06-19T03:06:46;17.90;99.90
4647;DHT22;2336;47.822;7.564;2023-06-19T03:09:13;17.90;99.90
4647;DHT22;2336;47.822;7.564;2023-06-19T03:11:41;17.90;99.90
4647;DHT22;2336;47.822;7.564;2023-06-19T03:14:07;17.90;99.90
4647;DHT22;2336;47.822;7.564;2023-06-19T03:16:35;17.80;99.90
4647;DHT22;2336;47.822;7.564;2023-06-19T03:19:02;17.90;99.90
4647;DHT22;2336;47.822;7.564;2023-06-19T03:21:28;17.80;99.90
4647;DHT22;2336;47.822;7.564;2023-06-19T03:23:57;17.80;99.90
4647;DHT22;2336;47.822;7.564;2023-06-19T03:26:23;17.80;99.90
4647;DHT22;2336;47.822;7.564;2023-06-19T03:28:51;17.80;99.90
4647;DHT22;2336;47.822;7.564;2023-06-19T03:31:18;17.80;99.90
4647;DHT22;2336;47.822;7.564;2023-06-19T03:33:45;17.80;99.90
4647;DHT22;2336;47.822;7.564;2023-06-19T03:36:11;17.70;99.90
4647;DHT22;2336;47.822;7.564;2023-06-19T03:38:38;17.80;99.90
4647;DHT22;2336;47.822;7.564;2023-06-19T03:41:06;17.80;99.90
4647;DHT22;2336;47.822;7.564;2023-06-19T03:43:33;17.80;99.90
4647;DHT22;2336;47.822;7.564;2023-06-19T03:46:00;17.80;99.90
4647;DHT22;2336;47.822;7.564;2023-06-19T03:48:27;17.70;99.90
4647;DHT22;2336;47.822;7.564;2023-06-19T03:50:54;17.70;99.90
4647;DHT22;2336;47.822;7.564;2023-06-19T03:53:20;17.70;99.90
4647;DHT22;2336;47.822;7.564;2023-06-19T03:55:47;17.70;99.90
4647;DHT22;2336;47.822;7.564;2023-06-19T03:58:15;17.60;99.90
4647;DHT22;2336;47.822;7.564;2023-06-19T04:00:42;17.70;99.90
4647;DHT22;2336;47.822;7.564;2023-06-19T04:03:09;17.60;99.90
4647;DHT22;2336;47.822;7.564;2023-06-19T04:05:36;17.70;99.90
4647;DHT22;2336;47.822;7.564;2023-06-19T04:08:04;17.70;99.90
4647;DHT22;2336;47.822;7.564;2023-06-19T04:10:31;17.70;99.90
4647;DHT22;2336;47.822;7.564;2023-06-19T04:12:57;17.60;99.90
4647;DHT22;2336;47.822;7.564;2023-06-19T04:15:25;17.60;99.90
4647;DHT22;2336;47.822;7.564;2023-06-19T04:17:52;17.60;99.90
4647;DHT22;2336;47.822;7.564;2023-06-19T04:20:19;17.70;99.90
4647;DHT22;2336;47.822;7.564;2023-06-19T04:22:46;17.70;99.90
4647;DHT22;2336;47.822;7.564;2023-06-19T04:25:12;17.70;99.90
4647;DHT22;2336;47.822;7.564;2023-06-19T04:27:39;17.80;99.90
4647;DHT22;2336;47.822;7.564;2023-06-19T04:30:07;17.80;99.90
4647;DHT22;2336;47.822;7.564;2023-06-19T04:32:35;17.80;99.90
4647;DHT22;2336;47.822;7.564;2023-06-19T04:35:02;17.90;99.90
4647;DHT22;2336;47.822;7.564;2023-06-19T04:37:30;17.90;99.90
4647;DHT22;2336;47.822;7.564;2023-06-19T04:39:56;17.90;99.90
4647;DHT22;2336;47.822;7.564;2023-06-19T04:42:24;17.90;99.90
4647;DHT22;2336;47.822;7.564;2023-06-19T04:44:52;17.90;99.90
4647;DHT22;2336;47.822;7.564;2023-06-19T04:47:21;18.00;99.90
4647;DHT22;2336;47.822;7.564;2023-06-19T04:49:49;18.00;99.90
4647;DHT22;2336;47.822;7.564;2023-06-19T04:52:16;18.00;99.90
4647;DHT22;2336;47.822;7.564;2023-06-19T04:54:44;18.10;99.90
4647;DHT22;2336;47.822;7.564;2023-06-19T04:57:10;18.10;99.90
4647;DHT22;2336;47.822;7.564;2023-06-19T04:59:37;18.00;99.90
4647;DHT22;2336;47.822;7.564;2023-06-19T05:02:04;18.00;99.90
4647;DHT22;2336;47.822;7.564;2023-06-19T05:04:32;18.00;99.90
4647;DHT22;2336;47.822;7.564;2023-06-19T05:07:01;18.00;99.90
4647;DHT22;2336;47.822;7.564;2023-06-19T05:09:28;18.00;99.90
4647;DHT22;2336;47.822;7.564;2023-06-19T05:11:55;18.00;99.90
4647;DHT22;2336;47.822;7.564;2023-06-19T05:14:21;18.10;99.90
4647;DHT22;2336;47.822;7.564;2023-06-19T05:16:48;18.10;99.90
4647;DHT22;2336;47.822;7.564;2023-06-19T05:19:15;18.10;99.90
4647;DHT22;2336;47.822;7.564;2023-06-19T05:21:41;18.10;99.90
4647;DHT22;2336;47.822;7.564;2023-06-19T05:24:09;18.10;99.90
4647;DHT22;2336;47.822;7.564;2023-06-19T05:26:36;18.10;99.90
4647;DHT22;2336;47.822;7.564;2023-06-19T05:29:03;18.10;99.90
4647;DHT22;2336;47.822;7.564;2023-06-19T05:31:29;18.10;99.90
4647;DHT22;2336;47.822;7.564;2023-06-19T05:33:56;18.10;99.90
4647;DHT22;2336;47.822;7.564;2023-06-19T05:36:24;18.10;99.90
4647;DHT22;2336;47.822;7.564;2023-06-19T05:38:50;18.10;99.90
4647;DHT22;2336;47.822;7.564;2023-06-19T05:41:18;18.10;99.90
4647;DHT22;2336;47.822;7.564;2023-06-19T05:43:45;18.10;99.90
4647;DHT22;2336;47.822;7.564;2023-06-19T05:46:12;18.20;99.90
4647;DHT22;2336;47.822;7.564;2023-06-19T05:48:38;18.20;99.90
4647;DHT22;2336;47.822;7.564;2023-06-19T05:51:05;18.30;99.90
4647;DHT22;2336;47.822;7.564;2023-06-19T05:53:32;18.30;99.90
4647;DHT22;2336;47.822;7.564;2023-06-19T05:55:59;18.40;99.90
4647;DHT22;2336;47.822;7.564;2023-06-19T05:58:27;18.40;99.90
4647;DHT22;2336;47.822;7.564;2023-06-19T06:00:54;18.40;99.90
4647;DHT22;2336;47.822;7.564;2023-06-19T06:03:23;18.50;99.90
4647;DHT22;2336;47.822;7.564;2023-06-19T06:05:50;18.60;99.90
4647;DHT22;2336;47.822;7.564;2023-06-19T06:08:17;18.80;99.90
4647;DHT22;2336;47.822;7.564;2023-06-19T06:10:43;18.90;99.90
4647;DHT22;2336;47.822;7.564;2023-06-19T06:13:10;19.10;99.90
4647;DHT22;2336;47.822;7.564;2023-06-19T06:15:38;19.20;99.90
4647;DHT22;2336;47.822;7.564;2023-06-19T06:18:05;19.20;99.90
4647;DHT22;2336;47.822;7.564;2023-06-19T06:20:31;19.30;99.90
4647;DHT22;2336;47.822;7.564;2023-06-19T06:22:58;19.40;99.90
4647;DHT22;2336;47.822;7.564;2023-06-19T06:25:25;19.60;99.90
4647;DHT22;2336;47.822;7.564;2023-06-19T06:27:52;19.70;99.90
4647;DHT22;2336;47.822;7.564;2023-06-19T06:30:18;19.80;99.90
4647;DHT22;2336;47.822;7.564;2023-06-19T06:32:46;19.80;99.90
4647;DHT22;2336;47.822;7.564;2023-06-19T06:35:13;19.90;99.90
4647;DHT22;2336;47.822;7.564;2023-06-19T06:37:40;20.00;99.90
4647;DHT22;2336;47.822;7.564;2023-06-19T06:40:07;20.00;99.90
4647;DHT22;2336;47.822;7.564;2023-06-19T06:42:36;20.10;99.90
4647;DHT22;2336;47.822;7.564;2023-06-19T06:45:04;20.20;99.90
4647;DHT22;2336;47.822;7.564;2023-06-19T06:47:32;20.20;99.90
4647;DHT22;2336;47.822;7.564;2023-06-19T06:50:00;20.20;99.90
4647;DHT22;2336;47.822;7.564;2023-06-19T06:52:26;20.20;99.90
4647;DHT22;2336;47.822;7.564;2023-06-19T06:54:55;20.20;99.90
4647;DHT22;2336;47.822;7.564;2023-06-19T06:57:22;20.20;99.90
4647;DHT22;2336;47.822;7.564;2023-06-19T06:59:49;20.30;99.90
4647;DHT22;2336;47.822;7.564;2023-06-19T07:02:16;20.40;99.90
4647;DHT22;2336;47.822;7.564;2023-06-19T07:04:42;20.60;99.90
4647;DHT22;2336;47.822;7.564;2023-06-19T07:07:10;20.70;99.90
4647;DHT22;2336;47.822;7.564;2023-06-19T07:09:37;20.80;99.90
4647;DHT22;2336;47.822;7.564;2023-06-19T07:12:04;21.00;99.90
4647;DHT22;2336;47.822;7.564;2023-06-19T07:14:32;21.00;99.90
4647;DHT22;2336;47.822;7.564;2023-06-19T07:16:59;21.10;99.90
4647;DHT22;2336;47.822;7.564;2023-06-19T07:19:26;21.30;99.90
4647;DHT22;2336;47.822;7.564;2023-06-19T07:21:53;21.40;99.90
4647;DHT22;2336;47.822;7.564;2023-06-19T07:24:21;21.50;99.90
4647;DHT22;2336;47.822;7.564;2023-06-19T07:26:49;21.60;99.90
4647;DHT22;2336;47.822;7.564;2023-06-19T07:29:16;21.80;99.90
4647;DHT22;2336;47.822;7.564;2023-06-19T07:31:42;22.00;99.90
4647;DHT22;2336;47.822;7.564;2023-06-19T07:34:09;22.20;99.90
4647;DHT22;2336;47.822;7.564;2023-06-19T07:36:36;22.30;99.90
4647;DHT22;2336;47.822;7.564;2023-06-19T07:39:03;22.40;99.90
4647;DHT22;2336;47.822;7.564;2023-06-19T07:41:31;22.50;99.90
4647;DHT22;2336;47.822;7.564;2023-06-19T07:43:57;22.60;99.90
4647;DHT22;2336;47.822;7.564;2023-06-19T07:46:24;22.70;99.90
4647;DHT22;2336;47.822;7.564;2023-06-19T07:48:51;22.80;99.90
4647;DHT22;2336;47.822;7.564;2023-06-19T07:51:18;23.00;99.90
4647;DHT22;2336;47.822;7.564;2023-06-19T07:53:44;23.10;99.90
4647;DHT22;2336;47.822;7.564;2023-06-19T07:56:11;23.20;99.90
4647;DHT22;2336;47.822;7.564;2023-06-19T07:58:39;23.30;99.90
4647;DHT22;2336;47.822;7.564;2023-06-19T08:01:06;23.30;99.90
4647;DHT22;2336;47.822;7.564;2023-06-19T08:03:33;23.40;99.90
4647;DHT22;2336;47.822;7.564;2023-06-19T08:06:00;23.50;99.90
4647;DHT22;2336;47.822;7.564;2023-06-19T08:08:26;23.60;99.90
4647;DHT22;2336;47.822;7.564;2023-06-19T08:10:53;23.70;99.90
4647;DHT22;2336;47.822;7.564;2023-06-19T08:13:20;23.70;99.90
4647;DHT22;2336;47.822;7.564;2023-06-19T08:15:48;23.80;99.90
4647;DHT22;2336;47.822;7.564;2023-06-19T08:18:15;23.70;99.90
4647;DHT22;2336;47.822;7.564;2023-06-19T08:20:42;23.80;99.90
4647;DHT22;2336;47.822;7.564;2023-06-19T08:23:09;23.80;99.90
4647;DHT22;2336;47.822;7.564;2023-06-19T08:25:36;24.00;99.90
4647;DHT22;2336;47.822;7.564;2023-06-19T08:28:03;24.10;99.90
4647;DHT22;2336;47.822;7.564;2023-06-19T08:30:30;24.20;99.90
4647;DHT22;2336;47.822;7.564;2023-06-19T08:32:58;24.30;99.90
4647;DHT22;2336;47.822;7.564;2023-06-19T08:35:25;24.30;99.90
4647;DHT22;2336;47.822;7.564;2023-06-19T08:37:51;24.40;99.90
4647;DHT22;2336;47.822;7.564;2023-06-19T08:40:19;24.30;99.90
4647;DHT22;2336;47.822;7.564;2023-06-19T08:42:46;24.50;99.90
4647;DHT22;2336;47.822;7.564;2023-06-19T08:45:12;24.50;99.90
4647;DHT22;2336;47.822;7.564;2023-06-19T08:47:39;24.60;99.90
4647;DHT22;2336;47.822;7.564;2023-06-19T08:50:08;24.70;99.90
4647;DHT22;2336;47.822;7.564;2023-06-19T08:52:35;24.70;99.90
4647;DHT22;2336;47.822;7.564;2023-06-19T08:55:01;24.80;99.90
4647;DHT22;2336;47.822;7.564;2023-06-19T08:57:35;24.80;99.90
4647;DHT22;2336;47.822;7.564;2023-06-19T09:00:05;24.80;99.80
4647;DHT22;2336;47.822;7.564;2023-06-19T09:02:37;24.80;99.90
4647;DHT22;2336;47.822;7.564;2023-06-19T09:05:14;24.90;99.90
4647;DHT22;2336;47.822;7.564;2023-06-19T09:07:41;24.90;99.90
4647;DHT22;2336;47.822;7.564;2023-06-19T09:10:13;24.90;99.90
4647;DHT22;2336;47.822;7.564;2023-06-19T09:12:42;24.90;99.90
4647;DHT22;2336;47.822;7.564;2023-06-19T09:15:11;25.00;99.90
4647;DHT22;2336;47.822;7.564;2023-06-19T09:17:39;25.00;99.90
4647;DHT22;2336;47.822;7.564;2023-06-19T09:20:07;25.10;99.90
4647;DHT22;2336;47.822;7.564;2023-06-19T09:22:38;25.20;99.10
4647;DHT22;2336;47.822;7.564;2023-06-19T09:25:05;25.40;99.60
4647;DHT22;2336;47.822;7.564;2023-06-19T09:27:35;25.40;98.00
4647;DHT22;2336;47.822;7.564;2023-06-19T09:30:02;25.40;98.00
4647;DHT22;2336;47.822;7.564;2023-06-19T09:32:30;25.40;98.70
4647;DHT22;2336;47.822;7.564;2023-06-19T09:34:57;25.50;97.80
4647;DHT22;2336;47.822;7.564;2023-06-19T09:37:26;25.70;97.80
4647;DHT22;2336;47.822;7.564;2023-06-19T09:39:55;25.70;96.00
4647;DHT22;2336;47.822;7.564;2023-06-19T09:42:29;25.80;95.70
4647;DHT22;2336;47.822;7.564;2023-06-19T09:44:59;26.00;95.90
4647;DHT22;2336;47.822;7.564;2023-06-19T09:47:30;26.20;96.00
4647;DHT22;2336;47.822;7.564;2023-06-19T09:49:57;26.30;94.90
4647;DHT22;2336;47.822;7.564;2023-06-19T09:52:25;26.40;95.60
4647;DHT22;2336;47.822;7.564;2023-06-19T09:54:55;26.50;94.90
4647;DHT22;2336;47.822;7.564;2023-06-19T09:57:23;26.80;94.80
4647;DHT22;2336;47.822;7.564;2023-06-19T09:59:52;26.70;91.90
4647;DHT22;2336;47.822;7.564;2023-06-19T10:02:20;26.50;90.90
4647;DHT22;2336;47.822;7.564;2023-06-19T10:04:50;26.60;93.00
4647;DHT22;2336;47.822;7.564;2023-06-19T10:07:18;26.70;93.20
4647;DHT22;2336;47.822;7.564;2023-06-19T10:09:57;27.00;92.10
4647;DHT22;2336;47.822;7.564;2023-06-19T10:12:34;27.10;91.10
4647;DHT22;2336;47.822;7.564;2023-06-19T10:15:09;27.40;92.50
4647;DHT22;2336;47.822;7.564;2023-06-19T10:17:36;27.40;91.00
4647;DHT22;2336;47.822;7.564;2023-06-19T10:20:03;27.20;90.30
4647;DHT22;2336;47.822;7.564;2023-06-19T10:22:49;27.30;92.90
4647;DHT22;2336;47.822;7.564;2023-06-19T10:25:21;27.30;89.80
4647;DHT22;2336;47.822;7.564;2023-06-19T10:27:49;27.40;87.70
4647;DHT22;2336;47.822;7.564;2023-06-19T10:30:17;27.50;90.80
4647;DHT22;2336;47.822;7.564;2023-06-19T10:32:44;27.60;86.50
4647;DHT22;2336;47.822;7.564;2023-06-19T10:35:11;27.60;88.40
4647;DHT22;2336;47.822;7.564;2023-06-19T10:37:39;27.50;89.00
4647;DHT22;2336;47.822;7.564;2023-06-19T10:40:06;27.70;90.10
4647;DHT22;2336;47.822;7.564;2023-06-19T10:42:36;28.00;85.80
4647;DHT22;2336;47.822;7.564;2023-06-19T10:45:05;28.40;88.50
4647;DHT22;2336;47.822;7.564;2023-06-19T10:47:32;28.70;84.50
4647;DHT22;2336;47.822;7.564;2023-06-19T10:49:59;28.90;85.20
4647;DHT22;2336;47.822;7.564;2023-06-19T10:52:28;28.90;83.80
4647;DHT22;2336;47.822;7.564;2023-06-19T10:54:55;28.50;80.30
4647;DHT22;2336;47.822;7.564;2023-06-19T10:57:27;28.50;84.70
4647;DHT22;2336;47.822;7.564;2023-06-19T10:59:55;28.70;84.60
4647;DHT22;2336;47.822;7.564;2023-06-19T11:02:22;29.00;79.50
4647;DHT22;2336;47.822;7.564;2023-06-19T11:04:52;29.10;81.60
4647;DHT22;2336;47.822;7.564;2023-06-19T11:07:19;29.20;80.80
4647;DHT22;2336;47.822;7.564;2023-06-19T11:09:46;29.30;81.80
4647;DHT22;2336;47.822;7.564;2023-06-19T11:12:19;29.60;81.20
4647;DHT22;2336;47.822;7.564;2023-06-19T11:14:45;29.60;80.90
4647;DHT22;2336;47.822;7.564;2023-06-19T11:17:13;29.40;82.10
4647;DHT22;2336;47.822;7.564;2023-06-19T11:19:40;29.40;81.10
4647;DHT22;2336;47.822;7.564;2023-06-19T11:22:09;29.50;81.50
4647;DHT22;2336;47.822;7.564;2023-06-19T11:24:36;29.40;81.50
4647;DHT22;2336;47.822;7.564;2023-06-19T11:27:03;29.30;82.30
4647;DHT22;2336;47.822;7.564;2023-06-19T11:29:31;29.10;80.50
4647;DHT22;2336;47.822;7.564;2023-06-19T11:32:05;28.80;79.20
4647;DHT22;2336;47.822;7.564;2023-06-19T11:34:36;28.30;80.30
4647;DHT22;2336;47.822;7.564;2023-06-19T11:37:11;28.30;79.50
4647;DHT22;2336;47.822;7.564;2023-06-19T11:39:39;28.10;80.50
4647;DHT22;2336;47.822;7.564;2023-06-19T11:42:07;28.20;81.90
4647;DHT22;2336;47.822;7.564;2023-06-19T11:44:33;28.50;82.60
4647;DHT22;2336;47.822;7.564;2023-06-19T11:47:00;28.10;76.60
4647;DHT22;2336;47.822;7.564;2023-06-19T11:49:28;27.90;76.70
4647;DHT22;2336;47.822;7.564;2023-06-19T11:52:02;27.80;81.60
4647;DHT22;2336;47.822;7.564;2023-06-19T11:54:29;27.80;82.30
4647;DHT22;2336;47.822;7.564;2023-06-19T11:56:55;28.10;83.80
4647;DHT22;2336;47.822;7.564;2023-06-19T11:59:22;28.10;80.50
4647;DHT22;2336;47.822;7.564;2023-06-19T12:01:49;28.40;81.80
4647;DHT22;2336;47.822;7.564;2023-06-19T12:04:16;28.50;81.10
4647;DHT22;2336;47.822;7.564;2023-06-19T12:06:43;28.60;76.90
4647;DHT22;2336;47.822;7.564;2023-06-19T12:09:11;28.70;77.30
4647;DHT22;2336;47.822;7.564;2023-06-19T12:11:38;28.80;77.60
4647;DHT22;2336;47.822;7.564;2023-06-19T12:14:05;28.70;74.40
4647;DHT22;2336;47.822;7.564;2023-06-19T12:16:32;28.70;77.30
4647;DHT22;2336;47.822;7.564;2023-06-19T12:18:58;29.00;79.50
4647;DHT22;2336;47.822;7.564;2023-06-19T12:21:25;29.40;79.80
4647;DHT22;2336;47.822;7.564;2023-06-19T12:23:52;29.50;75.70
4647;DHT22;2336;47.822;7.564;2023-06-19T12:26:20;29.30;77.90
4647;DHT22;2336;47.822;7.564;2023-06-19T12:28:50;29.30;75.10
4647;DHT22;2336;47.822;7.564;2023-06-19T12:31:17;29.30;76.60
4647;DHT22;2336;47.822;7.564;2023-06-19T12:33:44;29.20;75.10
4647;DHT22;2336;47.822;7.564;2023-06-19T12:36:13;28.80;72.90
4647;DHT22;2336;47.822;7.564;2023-06-19T12:38:40;28.60;76.20
4647;DHT22;2336;47.822;7.564;2023-06-19T12:41:07;28.70;76.10
4647;DHT22;2336;47.822;7.564;2023-06-19T12:43:35;28.70;76.00
4647;DHT22;2336;47.822;7.564;2023-06-19T12:46:02;28.60;78.00
4647;DHT22;2336;47.822;7.564;2023-06-19T12:48:28;28.50;75.70
4647;DHT22;2336;47.822;7.564;2023-06-19T12:50:55;28.40;76.20
4647;DHT22;2336;47.822;7.564;2023-06-19T12:53:22;28.40;77.60
4647;DHT22;2336;47.822;7.564;2023-06-19T12:55:52;28.40;76.60
4647;DHT22;2336;47.822;7.564;2023-06-19T12:58:19;28.50;77.50
4647;DHT22;2336;47.822;7.564;2023-06-19T13:00:47;28.60;77.80
4647;DHT22;2336;47.822;7.564;2023-06-19T13:03:14;28.60;78.20
4647;DHT22;2336;47.822;7.564;2023-06-19T13:05:41;28.70;75.90
4647;DHT22;2336;47.822;7.564;2023-06-19T13:08:07;29.00;78.60
4647;DHT22;2336;47.822;7.564;2023-06-19T13:10:34;29.20;74.20
4647;DHT22;2336;47.822;7.564;2023-06-19T13:13:01;29.00;74.80
4647;DHT22;2336;47.822;7.564;2023-06-19T13:15:28;28.90;75.30
4647;DHT22;2336;47.822;7.564;2023-06-19T13:17:56;29.00;69.10
4647;DHT22;2336;47.822;7.564;2023-06-19T13:20:22;29.20;71.00
4647;DHT22;2336;47.822;7.564;2023-06-19T13:22:49;29.20;71.30
4647;DHT22;2336;47.822;7.564;2023-06-19T13:25:17;29.30;70.20
4647;DHT22;2336;47.822;7.564;2023-06-19T13:27:44;29.30;72.90
4647;DHT22;2336;47.822;7.564;2023-06-19T13:30:12;29.50;73.10
4647;DHT22;2336;47.822;7.564;2023-06-19T13:32:38;29.70;71.10
4647;DHT22;2336;47.822;7.564;2023-06-19T13:35:08;29.70;70.70
4647;DHT22;2336;47.822;7.564;2023-06-19T13:37:36;30.00;71.20
4647;DHT22;2336;47.822;7.564;2023-06-19T13:40:05;30.10;70.60
4647;DHT22;2336;47.822;7.564;2023-06-19T13:42:32;30.00;72.40
4647;DHT22;2336;47.822;7.564;2023-06-19T13:45:00;30.10;72.50
4647;DHT22;2336;47.822;7.564;2023-06-19T13:47:27;30.00;71.90
4647;DHT22;2336;47.822;7.564;2023-06-19T13:49:54;30.00;73.10
4647;DHT22;2336;47.822;7.564;2023-06-19T13:52:22;29.90;72.70
4647;DHT22;2336;47.822;7.564;2023-06-19T13:54:49;30.00;72.00
4647;DHT22;2336;47.822;7.564;2023-06-19T13:57:16;30.10;72.00
4647;DHT22;2336;47.822;7.564;2023-06-19T13:59:43;30.10;70.90
4647;DHT22;2336;47.822;7.564;2023-06-19T14:02:09;30.30;72.70
4647;DHT22;2336;47.822;7.564;2023-06-19T14:04:36;30.50;71.20
4647;DHT22;2336;47.822;7.564;2023-06-19T14:07:04;30.60;70.70
4647;DHT22;2336;47.822;7.564;2023-06-19T14:09:32;30.70;71.70
4647;DHT22;2336;47.822;7.564;2023-06-19T14:11:59;30.70;71.70
4647;DHT22;2336;47.822;7.564;2023-06-19T14:14:25;30.70;70.80
4647;DHT22;2336;47.822;7.564;2023-06-19T14:16:52;30.80;70.30
4647;DHT22;2336;47.822;7.564;2023-06-19T14:19:19;30.80;70.70
4647;DHT22;2336;47.822;7.564;2023-06-19T14:21:46;30.60;70.00
4647;DHT22;2336;47.822;7.564;2023-06-19T14:24:13;30.50;70.00
4647;DHT22;2336;47.822;7.564;2023-06-19T14:26:41;30.50;70.80
4647;DHT22;2336;47.822;7.564;2023-06-19T14:29:07;30.60;70.30
4647;DHT22;2336;47.822;7.564;2023-06-19T14:31:34;30.70;70.20
4647;DHT22;2336;47.822;7.564;2023-06-19T14:34:01;30.50;70.40
4647;DHT22;2336;47.822;7.564;2023-06-19T14:36:27;30.40;73.00
4647;DHT22;2336;47.822;7.564;2023-06-19T14:38:54;30.30;70.70
4647;DHT22;2336;47.822;7.564;2023-06-19T14:41:21;30.30;73.00
4647;DHT22;2336;47.822;7.564;2023-06-19T14:43:49;30.50;73.20
4647;DHT22;2336;47.822;7.564;2023-06-19T14:46:16;30.60;72.20
4647;DHT22;2336;47.822;7.564;2023-06-19T14:48:42;30.70;70.50
4647;DHT22;2336;47.822;7.564;2023-06-19T14:51:09;30.90;71.40
4647;DHT22;2336;47.822;7.564;2023-06-19T14:53:37;30.90;68.90
4647;DHT22;2336;47.822;7.564;2023-06-19T14:56:04;31.00;72.10
4647;DHT22;2336;47.822;7.564;2023-06-19T14:58:31;30.90;71.50
4647;DHT22;2336;47.822;7.564;2023-06-19T15:00:59;30.70;72.70
4647;DHT22;2336;47.822;7.564;2023-06-19T15:03:25;30.50;69.30
4647;DHT22;2336;47.822;7.564;2023-06-19T15:05:53;30.40;70.50
4647;DHT22;2336;47.822;7.564;2023-06-19T15:08:19;30.40;70.50
4647;DHT22;2336;47.822;7.564;2023-06-19T15:10:49;30.50;71.20
4647;DHT22;2336;47.822;7.564;2023-06-19T15:13:16;30.60;73.40
4647;DHT22;2336;47.822;7.564;2023-06-19T15:15:43;30.60;70.60
4647;DHT22;2336;47.822;7.564;2023-06-19T15:18:11;30.80;69.70
4647;DHT22;2336;47.822;7.564;2023-06-19T15:20:38;30.80;69.50
4647;DHT22;2336;47.822;7.564;2023-06-19T15:23:05;30.80;69.10
4647;DHT22;2336;47.822;7.564;2023-06-19T15:25:32;30.70;69.80
4647;DHT22;2336;47.822;7.564;2023-06-19T15:27:59;30.60;69.10
4647;DHT22;2336;47.822;7.564;2023-06-19T15:30:27;30.60;69.50
4647;DHT22;2336;47.822;7.564;2023-06-19T15:32:54;30.50;69.60
4647;DHT22;2336;47.822;7.564;2023-06-19T15:35:24;30.50;70.10
4647;DHT22;2336;47.822;7.564;2023-06-19T15:37:51;30.60;70.30
4647;DHT22;2336;47.822;7.564;2023-06-19T15:40:18;30.70;69.80
4647;DHT22;2336;47.822;7.564;2023-06-19T15:42:45;30.90;70.90
4647;DHT22;2336;47.822;7.564;2023-06-19T15:45:11;30.90;69.20
4647;DHT22;2336;47.822;7.564;2023-06-19T15:47:39;30.90;68.70
4647;DHT22;2336;47.822;7.564;2023-06-19T15:50:07;31.00;69.40
4647;DHT22;2336;47.822;7.564;2023-06-19T15:52:36;31.00;68.40
4647;DHT22;2336;47.822;7.564;2023-06-19T15:55:03;31.00;68.50
4647;DHT22;2336;47.822;7.564;2023-06-19T15:57:31;30.80;68.20
4647;DHT22;2336;47.822;7.564;2023-06-19T15:59:57;30.80;68.50
4647;DHT22;2336;47.822;7.564;2023-06-19T16:02:24;30.70;68.50
4647;DHT22;2336;47.822;7.564;2023-06-19T16:04:51;30.70;68.80